sensor_id;sensor_type;location;lat;lon;timestamp;pressure;altitude;pressure_sealevel;temperature
71960;BMP280;59832;51.146;14.024;2023-05-10T00:01:54;97859.59;;;11.64
71960;BMP280;59832;51.146;14.024;2023-05-10T00:04:20;97857.75;;;11.61
71960;BMP280;59832;51.146;14.024;2023-05-10T00:06:47;97860.63;;;11.59
71960;BMP280;59832;51.146;14.024;2023-05-10T00:09:14;97850.44;;;11.56
71960;BMP280;59832;51.146;14.024;2023-05-10T00:11:40;97861.38;;;11.60
71960;BMP280;59832;51.146;14.024;2023-05-10T00:14:07;97843.13;;;11.58
71960;BMP280;59832;51.146;14.024;2023-05-10T00:16:33;97844.16;;;11.43
71960;BMP280;59832;51.146;14.024;2023-05-10T00:18:59;97839.47;;;11.48
71960;BMP280;59832;51.146;14.024;2023-05-10T00:21:26;97835.81;;;11.46
71960;BMP280;59832;51.146;14.024;2023-05-10T00:23:54;97837.94;;;11.40
71960;BMP280;59832;51.146;14.024;2023-05-10T00:26:21;97835.38;;;11.40
71960;BMP280;59832;51.146;14.024;2023-05-10T00:28:47;97842.34;;;11.43
71960;BMP280;59832;51.146;14.024;2023-05-10T00:31:14;97843.75;;;11.41
71960;BMP280;59832;51.146;14.024;2023-05-10T00:33:40;97854.66;;;11.38
71960;BMP280;59832;51.146;14.024;2023-05-10T00:36:07;97841.59;;;11.39
71960;BMP280;59832;51.146;14.024;2023-05-10T00:38:33;97832.81;;;11.36
71960;BMP280;59832;51.146;14.024;2023-05-10T00:41:00;97837.91;;;11.36
71960;BMP280;59832;51.146;14.024;2023-05-10T00:43:27;97830.28;;;11.36
71960;BMP280;59832;51.146;14.024;2023-05-10T00:45:53;97841.94;;;11.38
71960;BMP280;59832;51.146;14.024;2023-05-10T00:48:20;97838.59;;;11.30
71960;BMP280;59832;51.146;14.024;2023-05-10T00:50:48;97831.25;;;11.21
71960;BMP280;59832;51.146;14.024;2023-05-10T00:53:14;97828.75;;;11.28
71960;BMP280;59832;51.146;14.024;2023-05-10T00:55:41;97829.06;;;11.23
71960;BMP280;59832;51.146;14.024;2023-05-10T00:58:08;97839.25;;;11.23
71960;BMP280;59832;51.146;14.024;2023-05-10T01:00:35;97833.44;;;11.19
71960;BMP280;59832;51.146;14.024;2023-05-10T01:03:02;97825.66;;;11.05
71960;BMP280;59832;51.146;14.024;2023-05-10T01:05:29;97819.91;;;11.12
71960;BMP280;59832;51.146;14.024;2023-05-10T01:07:55;97819.13;;;11.08
71960;BMP280;59832;51.146;14.024;2023-05-10T01:10:22;97822.75;;;11.07
71960;BMP280;59832;51.146;14.024;2023-05-10T01:12:49;97819.84;;;11.05
71960;BMP280;59832;51.146;14.024;2023-05-10T01:15:16;97812.84;;;10.98
71960;BMP280;59832;51.146;14.024;2023-05-10T01:17:45;97815.03;;;11.00
71960;BMP280;59832;51.146;14.024;2023-05-10T01:20:13;97819.75;;;10.94
71960;BMP280;59832;51.146;14.024;2023-05-10T01:25:42;97818.34;;;10.97
71960;BMP280;59832;51.146;14.024;2023-05-10T01:31:30;97817.81;;;10.84
71960;BMP280;59832;51.146;14.024;2023-05-10T01:34:07;97809.78;;;10.78
71960;BMP280;59832;51.146;14.024;2023-05-10T01:36:45;97809.34;;;10.73
71960;BMP280;59832;51.146;14.024;2023-05-10T01:39:42;97803.91;;;10.74
71960;BMP280;59832;51.146;14.024;2023-05-10T01:42:15;97803.16;;;10.74
71960;BMP280;59832;51.146;14.024;2023-05-10T01:44:48;97798.13;;;10.77
71960;BMP280;59832;51.146;14.024;2023-05-10T01:47:20;97803.97;;;10.78
71960;BMP280;59832;51.146;14.024;2023-05-10T01:49:55;97803.16;;;10.74
71960;BMP280;59832;51.146;14.024;2023-05-10T01:52:33;97796.91;;;10.64
71960;BMP280;59832;51.146;14.024;2023-05-10T01:55:06;97798.00;;;10.67
71960;BMP280;59832;51.146;14.024;2023-05-10T01:57:34;97801.63;;;10.66
71960;BMP280;59832;51.146;14.024;2023-05-10T02:00:03;97804.19;;;10.66
71960;BMP280;59832;51.146;14.024;2023-05-10T02:02:35;97798.63;;;10.53
71960;BMP280;59832;51.146;14.024;2023-05-10T02:05:05;97800.44;;;10.53
71960;BMP280;59832;51.146;14.024;2023-05-10T02:07:36;97799.72;;;10.56
71960;BMP280;59832;51.146;14.024;2023-05-10T02:10:05;97804.44;;;10.57
71960;BMP280;59832;51.146;14.024;2023-05-10T02:12:35;97793.25;;;10.62
71960;BMP280;59832;51.146;14.024;2023-05-10T02:15:04;97797.97;;;10.63
71960;BMP280;59832;51.146;14.024;2023-05-10T02:17:32;97793.56;;;10.57
71960;BMP280;59832;51.146;14.024;2023-05-10T02:19:59;97789.53;;;10.52
71960;BMP280;59832;51.146;14.024;2023-05-10T02:22:27;97795.94;;;10.42
71960;BMP280;59832;51.146;14.024;2023-05-10T02:24:55;97785.91;;;10.53
71960;BMP280;59832;51.146;14.024;2023-05-10T02:27:25;97785.94;;;10.57
71960;BMP280;59832;51.146;14.024;2023-05-10T02:29:53;97781.13;;;10.48
71960;BMP280;59832;51.146;14.024;2023-05-10T02:32:21;97785.44;;;10.44
71960;BMP280;59832;51.146;14.024;2023-05-10T02:34:48;97796.69;;;10.43
71960;BMP280;59832;51.146;14.024;2023-05-10T02:37:20;97782.84;;;10.40
71960;BMP280;59832;51.146;14.024;2023-05-10T02:39:48;97789.06;;;10.43
71960;BMP280;59832;51.146;14.024;2023-05-10T02:42:19;97799.19;;;10.39
71960;BMP280;59832;51.146;14.024;2023-05-10T02:44:50;97786.53;;;10.47
71960;BMP280;59832;51.146;14.024;2023-05-10T02:47:18;97792.31;;;10.40
71960;BMP280;59832;51.146;14.024;2023-05-10T02:49:45;97798.78;;;10.37
71960;BMP280;59832;51.146;14.024;2023-05-10T02:52:16;97797.72;;;10.38
71960;BMP280;59832;51.146;14.024;2023-05-10T02:54:49;97793.38;;;10.39
71960;BMP280;59832;51.146;14.024;2023-05-10T02:57:17;97795.09;;;10.31
71960;BMP280;59832;51.146;14.024;2023-05-10T02:59:48;97797.28;;;10.33
71960;BMP280;59832;51.146;14.024;2023-05-10T03:02:15;97792.56;;;10.31
71960;BMP280;59832;51.146;14.024;2023-05-10T03:04:41;97786.31;;;10.25
71960;BMP280;59832;51.146;14.024;2023-05-10T03:07:08;97796.88;;;10.27
71960;BMP280;59832;51.146;14.024;2023-05-10T03:09:34;97791.34;;;10.22
71960;BMP280;59832;51.146;14.024;2023-05-10T03:12:13;97792.50;;;10.28
71960;BMP280;59832;51.146;14.024;2023-05-10T03:15:03;97784.47;;;10.22
71960;BMP280;59832;51.146;14.024;2023-05-10T03:17:46;97789.88;;;10.21
71960;BMP280;59832;51.146;14.024;2023-05-10T03:20:32;97796.44;;;10.22
71960;BMP280;59832;51.146;14.024;2023-05-10T03:23:26;97795.97;;;10.13
71960;BMP280;59832;51.146;14.024;2023-05-10T03:25:53;97790.75;;;10.02
71960;BMP280;59832;51.146;14.024;2023-05-10T03:28:20;97787.13;;;10.03
71960;BMP280;59832;51.146;14.024;2023-05-10T03:30:47;97783.56;;;10.08
71960;BMP280;59832;51.146;14.024;2023-05-10T03:33:14;97783.81;;;9.99
71960;BMP280;59832;51.146;14.024;2023-05-10T03:35:40;97787.38;;;9.94
71960;BMP280;59832;51.146;14.024;2023-05-10T03:38:07;97778.44;;;10.04
71960;BMP280;59832;51.146;14.024;2023-05-10T03:40:34;97787.38;;;9.94
71960;BMP280;59832;51.146;14.024;2023-05-10T03:43:00;97784.22;;;10.01
71960;BMP280;59832;51.146;14.024;2023-05-10T03:45:27;97790.03;;;10.02
71960;BMP280;59832;51.146;14.024;2023-05-10T03:47:53;97789.63;;;10.00
71960;BMP280;59832;51.146;14.024;2023-05-10T03:50:20;97794.41;;;10.05
71960;BMP280;59832;51.146;14.024;2023-05-10T03:52:47;97795.44;;;10.00
71960;BMP280;59832;51.146;14.024;2023-05-10T03:55:13;97789.38;;;10.08
71960;BMP280;59832;51.146;14.024;2023-05-10T03:57:40;97798.09;;;10.07
71960;BMP280;59832;51.146;14.024;2023-05-10T04:00:06;97797.66;;;10.02
71960;BMP280;59832;51.146;14.024;2023-05-10T04:02:33;97795.88;;;10.06
71960;BMP280;59832;51.146;14.024;2023-05-10T04:05:00;97802.19;;;10.15
71960;BMP280;59832;51.146;14.024;2023-05-10T04:07:26;97802.56;;;10.17
71960;BMP280;59832;51.146;14.024;2023-05-10T04:09:53;97805.84;;;10.18
71960;BMP280;59832;51.146;14.024;2023-05-10T04:12:19;97795.75;;;10.25
71960;BMP280;59832;51.146;14.024;2023-05-10T04:14:46;97793.94;;;10.25
71960;BMP280;59832;51.146;14.024;2023-05-10T04:17:12;97791.03;;;10.23
71960;BMP280;59832;51.146;14.024;2023-05-10T04:19:39;97792.59;;;10.35
71960;BMP280;59832;51.146;14.024;2023-05-10T04:22:05;97783.94;;;10.39
71960;BMP280;59832;51.146;14.024;2023-05-10T04:24:32;97788.72;;;10.45
71960;BMP280;59832;51.146;14.024;2023-05-10T04:26:58;97780.41;;;10.51
71960;BMP280;59832;51.146;14.024;2023-05-10T04:29:24;97792.16;;;10.63
71960;BMP280;59832;51.146;14.024;2023-05-10T04:31:51;97778.72;;;10.62
71960;BMP280;59832;51.146;14.024;2023-05-10T04:34:17;97779.84;;;10.65
71960;BMP280;59832;51.146;14.024;2023-05-10T04:36:44;97794.44;;;10.75
71960;BMP280;59832;51.146;14.024;2023-05-10T04:39:11;97785.47;;;10.84
71960;BMP280;59832;51.146;14.024;2023-05-10T04:41:37;97784.69;;;10.80
71960;BMP280;59832;51.146;14.024;2023-05-10T04:44:04;97786.25;;;10.92
71960;BMP280;59832;51.146;14.024;2023-05-10T04:46:31;97790.66;;;10.99
71960;BMP280;59832;51.146;14.024;2023-05-10T04:48:57;97796.97;;;11.12
71960;BMP280;59832;51.146;14.024;2023-05-10T04:51:24;97795.28;;;11.30
71960;BMP280;59832;51.146;14.024;2023-05-10T04:53:50;97793.84;;;11.36
71960;BMP280;59832;51.146;14.024;2023-05-10T04:56:30;97789.97;;;11.53
71960;BMP280;59832;51.146;14.024;2023-05-10T04:58:57;97782.78;;;11.65
71960;BMP280;59832;51.146;14.024;2023-05-10T05:01:23;97788.63;;;11.73
71960;BMP280;59832;51.146;14.024;2023-05-10T05:03:50;97788.41;;;12.10
71960;BMP280;59832;51.146;14.024;2023-05-10T05:06:19;97785.22;;;12.30
71960;BMP280;59832;51.146;14.024;2023-05-10T05:08:47;97792.09;;;12.19
71960;BMP280;59832;51.146;14.024;2023-05-10T05:11:16;97796.91;;;12.39
71960;BMP280;59832;51.146;14.024;2023-05-10T05:13:43;97796.56;;;12.61
71960;BMP280;59832;51.146;14.024;2023-05-10T05:16:09;97800.94;;;12.54
71960;BMP280;59832;51.146;14.024;2023-05-10T05:18:37;97787.09;;;12.72
71960;BMP280;59832;51.146;14.024;2023-05-10T05:21:13;97796.91;;;12.46
71960;BMP280;59832;51.146;14.024;2023-05-10T05:23:40;97791.47;;;12.51
71960;BMP280;59832;51.146;14.024;2023-05-10T05:26:06;97792.59;;;12.89
71960;BMP280;59832;51.146;14.024;2023-05-10T05:28:33;97788.91;;;12.54
71960;BMP280;59832;51.146;14.024;2023-05-10T05:31:07;97782.75;;;12.91
71960;BMP280;59832;51.146;14.024;2023-05-10T05:33:34;97777.28;;;13.03
71960;BMP280;59832;51.146;14.024;2023-05-10T05:36:02;97777.94;;;13.39
71960;BMP280;59832;51.146;14.024;2023-05-10T05:38:29;97775.78;;;13.34
71960;BMP280;59832;51.146;14.024;2023-05-10T05:40:56;97776.16;;;13.21
71960;BMP280;59832;51.146;14.024;2023-05-10T05:43:23;97788.56;;;13.30
71960;BMP280;59832;51.146;14.024;2023-05-10T05:45:49;97776.16;;;13.18
71960;BMP280;59832;51.146;14.024;2023-05-10T05:48:16;97774.66;;;13.31
71960;BMP280;59832;51.146;14.024;2023-05-10T05:50:42;97770.22;;;13.56
71960;BMP280;59832;51.146;14.024;2023-05-10T05:53:09;97779.09;;;13.16
71960;BMP280;59832;51.146;14.024;2023-05-10T05:55:36;97781.28;;;13.07
71960;BMP280;59832;51.146;14.024;2023-05-10T05:58:02;97773.94;;;13.30
71960;BMP280;59832;51.146;14.024;2023-05-10T06:00:29;97767.03;;;13.13
71960;BMP280;59832;51.146;14.024;2023-05-10T06:02:55;97766.28;;;13.34
71960;BMP280;59832;51.146;14.024;2023-05-10T06:05:22;97776.38;;;13.76
71960;BMP280;59832;51.146;14.024;2023-05-10T06:07:48;97761.84;;;13.52
71960;BMP280;59832;51.146;14.024;2023-05-10T06:10:15;97777.94;;;13.49
71960;BMP280;59832;51.146;14.024;2023-05-10T06:12:41;97777.47;;;13.79
71960;BMP280;59832;51.146;14.024;2023-05-10T06:15:08;97777.31;;;14.07
71960;BMP280;59832;51.146;14.024;2023-05-10T06:17:35;97778.91;;;14.97
71960;BMP280;59832;51.146;14.024;2023-05-10T06:20:01;97778.63;;;14.40
71960;BMP280;59832;51.146;14.024;2023-05-10T06:22:28;97778.25;;;14.38
71960;BMP280;59832;51.146;14.024;2023-05-10T06:24:54;97784.50;;;14.34
71960;BMP280;59832;51.146;14.024;2023-05-10T06:27:21;97769.59;;;14.21
71960;BMP280;59832;51.146;14.024;2023-05-10T06:29:48;97775.81;;;14.20
71960;BMP280;59832;51.146;14.024;2023-05-10T06:32:19;97776.31;;;13.98
71960;BMP280;59832;51.146;14.024;2023-05-10T06:34:45;97787.59;;;14.62
71960;BMP280;59832;51.146;14.024;2023-05-10T06:37:12;97784.91;;;14.28
71960;BMP280;59832;51.146;14.024;2023-05-10T06:39:39;97785.13;;;14.52
71960;BMP280;59832;51.146;14.024;2023-05-10T06:42:05;97781.25;;;15.22
71960;BMP280;59832;51.146;14.024;2023-05-10T06:44:32;97775.97;;;14.51
71960;BMP280;59832;51.146;14.024;2023-05-10T06:46:58;97784.50;;;14.85
71960;BMP280;59832;51.146;14.024;2023-05-10T06:49:25;97778.06;;;14.66
71960;BMP280;59832;51.146;14.024;2023-05-10T06:51:51;97793.19;;;14.95
71960;BMP280;59832;51.146;14.024;2023-05-10T06:54:18;97788.19;;;14.81
71960;BMP280;59832;51.146;14.024;2023-05-10T06:56:45;97791.16;;;15.54
71960;BMP280;59832;51.146;14.024;2023-05-10T06:59:11;97800.91;;;15.28
71960;BMP280;59832;51.146;14.024;2023-05-10T07:01:39;97788.94;;;15.56
71960;BMP280;59832;51.146;14.024;2023-05-10T07:04:06;97790.81;;;15.14
71960;BMP280;59832;51.146;14.024;2023-05-10T07:06:34;97797.44;;;15.12
71960;BMP280;59832;51.146;14.024;2023-05-10T07:09:00;97793.19;;;15.69
71960;BMP280;59832;51.146;14.024;2023-05-10T07:11:27;97799.72;;;15.44
71960;BMP280;59832;51.146;14.024;2023-05-10T07:13:54;97799.78;;;15.70
71960;BMP280;59832;51.146;14.024;2023-05-10T07:16:20;97802.91;;;15.51
71960;BMP280;59832;51.146;14.024;2023-05-10T07:18:47;97806.72;;;16.00
71960;BMP280;59832;51.146;14.024;2023-05-10T07:21:14;97799.38;;;16.29
71960;BMP280;59832;51.146;14.024;2023-05-10T07:23:41;97797.25;;;17.13
71960;BMP280;59832;51.146;14.024;2023-05-10T07:26:10;97800.19;;;16.92
71960;BMP280;59832;51.146;14.024;2023-05-10T07:28:37;97804.06;;;16.34
71960;BMP280;59832;51.146;14.024;2023-05-10T07:31:04;97801.69;;;16.20
71960;BMP280;59832;51.146;14.024;2023-05-10T07:33:31;97804.97;;;16.70
71960;BMP280;59832;51.146;14.024;2023-05-10T07:35:57;97809.16;;;17.04
71960;BMP280;59832;51.146;14.024;2023-05-10T07:38:23;97805.63;;;17.37
71960;BMP280;59832;51.146;14.024;2023-05-10T07:40:50;97800.69;;;17.26
71960;BMP280;59832;51.146;14.024;2023-05-10T07:43:16;97807.06;;;16.99
71960;BMP280;59832;51.146;14.024;2023-05-10T07:45:43;97802.44;;;16.90
71960;BMP280;59832;51.146;14.024;2023-05-10T07:48:09;97809.91;;;16.58
71960;BMP280;59832;51.146;14.024;2023-05-10T07:50:36;97806.91;;;16.86
71960;BMP280;59832;51.146;14.024;2023-05-10T07:53:02;97808.75;;;16.39
71960;BMP280;59832;51.146;14.024;2023-05-10T07:55:29;97810.00;;;16.27
71960;BMP280;59832;51.146;14.024;2023-05-10T07:57:56;97811.91;;;17.16
71960;BMP280;59832;51.146;14.024;2023-05-10T08:00:22;97810.44;;;17.35
71960;BMP280;59832;51.146;14.024;2023-05-10T08:02:49;97801.59;;;18.08
71960;BMP280;59832;51.146;14.024;2023-05-10T08:05:15;97805.03;;;17.49
71960;BMP280;59832;51.146;14.024;2023-05-10T08:07:42;97808.56;;;17.75
71960;BMP280;59832;51.146;14.024;2023-05-10T08:10:09;97795.84;;;17.68
71960;BMP280;59832;51.146;14.024;2023-05-10T08:12:37;97798.81;;;17.66
71960;BMP280;59832;51.146;14.024;2023-05-10T08:15:05;97805.13;;;17.81
71960;BMP280;59832;51.146;14.024;2023-05-10T08:17:31;97803.41;;;18.27
71960;BMP280;59832;51.146;14.024;2023-05-10T08:19:58;97807.50;;;17.72
71960;BMP280;59832;51.146;14.024;2023-05-10T08:22:25;97805.56;;;18.12
71960;BMP280;59832;51.146;14.024;2023-05-10T08:24:51;97812.44;;;17.83
71960;BMP280;59832;51.146;14.024;2023-05-10T08:27:18;97816.72;;;18.06
71960;BMP280;59832;51.146;14.024;2023-05-10T08:29:44;97820.81;;;17.51
71960;BMP280;59832;51.146;14.024;2023-05-10T08:32:15;97817.78;;;18.08
71960;BMP280;59832;51.146;14.024;2023-05-10T08:34:42;97817.56;;;17.67
71960;BMP280;59832;51.146;14.024;2023-05-10T08:37:08;97827.88;;;17.47
71960;BMP280;59832;51.146;14.024;2023-05-10T08:39:36;97824.38;;;17.93
71960;BMP280;59832;51.146;14.024;2023-05-10T08:42:04;97825.00;;;17.61
71960;BMP280;59832;51.146;14.024;2023-05-10T08:44:32;97821.78;;;17.93
71960;BMP280;59832;51.146;14.024;2023-05-10T08:47:02;97825.03;;;18.62
71960;BMP280;59832;51.146;14.024;2023-05-10T08:49:31;97827.56;;;17.97
71960;BMP280;59832;51.146;14.024;2023-05-10T08:52:01;97829.13;;;17.94
71960;BMP280;59832;51.146;14.024;2023-05-10T08:54:27;97829.66;;;18.67
71960;BMP280;59832;51.146;14.024;2023-05-10T08:56:54;97831.09;;;19.13
71960;BMP280;59832;51.146;14.024;2023-05-10T08:59:21;97841.56;;;19.22
71960;BMP280;59832;51.146;14.024;2023-05-10T09:01:48;97838.63;;;19.07
71960;BMP280;59832;51.146;14.024;2023-05-10T09:04:16;97840.50;;;19.19
71960;BMP280;59832;51.146;14.024;2023-05-10T09:06:42;97841.63;;;19.59
71960;BMP280;59832;51.146;14.024;2023-05-10T09:09:09;97846.81;;;18.89
71960;BMP280;59832;51.146;14.024;2023-05-10T09:11:35;97843.63;;;18.69
71960;BMP280;59832;51.146;14.024;2023-05-10T09:14:02;97863.28;;;19.37
71960;BMP280;59832;51.146;14.024;2023-05-10T09:16:28;97853.25;;;18.81
71960;BMP280;59832;51.146;14.024;2023-05-10T09:18:55;97847.63;;;18.86
71960;BMP280;59832;51.146;14.024;2023-05-10T09:21:22;97854.56;;;18.73
71960;BMP280;59832;51.146;14.024;2023-05-10T09:23:49;97849.13;;;19.29
71960;BMP280;59832;51.146;14.024;2023-05-10T09:26:16;97846.50;;;19.16
71960;BMP280;59832;51.146;14.024;2023-05-10T09:28:55;97855.50;;;18.95
71960;BMP280;59832;51.146;14.024;2023-05-10T09:31:22;97847.53;;;19.19
71960;BMP280;59832;51.146;14.024;2023-05-10T09:33:50;97858.59;;;19.86
71960;BMP280;59832;51.146;14.024;2023-05-10T09:36:17;97863.22;;;20.16
71960;BMP280;59832;51.146;14.024;2023-05-10T09:38:48;97853.13;;;19.84
71960;BMP280;59832;51.146;14.024;2023-05-10T09:41:20;97841.22;;;20.11
71960;BMP280;59832;51.146;14.024;2023-05-10T09:43:47;97847.00;;;20.15
71960;BMP280;59832;51.146;14.024;2023-05-10T09:46:14;97858.03;;;20.03
71960;BMP280;59832;51.146;14.024;2023-05-10T09:48:45;97853.00;;;19.21
71960;BMP280;59832;51.146;14.024;2023-05-10T09:51:22;97856.84;;;19.00
71960;BMP280;59832;51.146;14.024;2023-05-10T09:54:09;97849.25;;;19.50
71960;BMP280;59832;51.146;14.024;2023-05-10T09:56:36;97864.25;;;19.93
71960;BMP280;59832;51.146;14.024;2023-05-10T09:59:06;97848.38;;;20.07
71960;BMP280;59832;51.146;14.024;2023-05-10T10:01:34;97854.72;;;20.62
71960;BMP280;59832;51.146;14.024;2023-05-10T10:04:05;97851.63;;;20.20
71960;BMP280;59832;51.146;14.024;2023-05-10T10:06:37;97855.41;;;19.28
71960;BMP280;59832;51.146;14.024;2023-05-10T10:09:05;97850.50;;;19.17
71960;BMP280;59832;51.146;14.024;2023-05-10T10:11:34;97850.66;;;19.39
71960;BMP280;59832;51.146;14.024;2023-05-10T10:14:00;97855.19;;;19.35
71960;BMP280;59832;51.146;14.024;2023-05-10T10:16:31;97842.09;;;19.29
71960;BMP280;59832;51.146;14.024;2023-05-10T10:18:58;97845.88;;;19.66
71960;BMP280;59832;51.146;14.024;2023-05-10T10:21:25;97838.84;;;19.54
71960;BMP280;59832;51.146;14.024;2023-05-10T10:23:51;97844.13;;;19.76
71960;BMP280;59832;51.146;14.024;2023-05-10T10:26:20;97843.44;;;20.35
71960;BMP280;59832;51.146;14.024;2023-05-10T10:31:37;97847.94;;;19.84
71960;BMP280;59832;51.146;14.024;2023-05-10T10:34:06;97845.97;;;20.00
71960;BMP280;59832;51.146;14.024;2023-05-10T10:36:48;97849.16;;;19.79
71960;BMP280;59832;51.146;14.024;2023-05-10T10:39:15;97849.63;;;20.37
71960;BMP280;59832;51.146;14.024;2023-05-10T10:41:50;97844.28;;;20.32
71960;BMP280;59832;51.146;14.024;2023-05-10T10:49:33;97854.22;;;20.67
71960;BMP280;59832;51.146;14.024;2023-05-10T10:52:30;97851.81;;;21.38
71960;BMP280;59832;51.146;14.024;2023-05-10T11:02:55;97834.28;;;20.08
71960;BMP280;59832;51.146;14.024;2023-05-10T11:05:39;97840.59;;;20.20
71960;BMP280;59832;51.146;14.024;2023-05-10T11:08:14;97832.13;;;19.94
71960;BMP280;59832;51.146;14.024;2023-05-10T11:10:50;97830.53;;;20.22
71960;BMP280;59832;51.146;14.024;2023-05-10T11:13:28;97842.72;;;20.21
71960;BMP280;59832;51.146;14.024;2023-05-10T11:15:55;97843.09;;;20.45
71960;BMP280;59832;51.146;14.024;2023-05-10T11:18:25;97835.88;;;20.53
71960;BMP280;59832;51.146;14.024;2023-05-10T11:20:58;97836.34;;;20.60
71960;BMP280;59832;51.146;14.024;2023-05-10T11:23:58;97840.63;;;20.42
71960;BMP280;59832;51.146;14.024;2023-05-10T11:26:26;97834.38;;;20.17
71960;BMP280;59832;51.146;14.024;2023-05-10T11:28:55;97840.44;;;20.92
71960;BMP280;59832;51.146;14.024;2023-05-10T11:31:22;97849.84;;;20.77
71960;BMP280;59832;51.146;14.024;2023-05-10T11:33:51;97839.41;;;20.68
71960;BMP280;59832;51.146;14.024;2023-05-10T11:36:20;97835.53;;;20.85
71960;BMP280;59832;51.146;14.024;2023-05-10T11:38:48;97835.28;;;21.45
71960;BMP280;59832;51.146;14.024;2023-05-10T11:41:16;97842.69;;;21.33
71960;BMP280;59832;51.146;14.024;2023-05-10T11:43:45;97834.19;;;20.46
71960;BMP280;59832;51.146;14.024;2023-05-10T11:46:13;97839.66;;;20.61
71960;BMP280;59832;51.146;14.024;2023-05-10T11:48:39;97835.56;;;20.38
71960;BMP280;59832;51.146;14.024;2023-05-10T11:51:07;97839.59;;;20.73
71960;BMP280;59832;51.146;14.024;2023-05-10T11:53:34;97842.09;;;20.43
71960;BMP280;59832;51.146;14.024;2023-05-10T11:56:05;97846.31;;;20.49
71960;BMP280;59832;51.146;14.024;2023-05-10T11:58:32;97844.09;;;21.56
71960;BMP280;59832;51.146;14.024;2023-05-10T12:01:00;97843.16;;;21.41
71960;BMP280;59832;51.146;14.024;2023-05-10T12:03:27;97855.66;;;21.33
71960;BMP280;59832;51.146;14.024;2023-05-10T12:05:55;97846.63;;;20.73
71960;BMP280;59832;51.146;14.024;2023-05-10T12:08:22;97859.53;;;21.07
71960;BMP280;59832;51.146;14.024;2023-05-10T12:10:50;97850.66;;;21.17
71960;BMP280;59832;51.146;14.024;2023-05-10T12:13:17;97842.22;;;21.57
71960;BMP280;59832;51.146;14.024;2023-05-10T12:15:43;97843.97;;;21.60
71960;BMP280;59832;51.146;14.024;2023-05-10T12:18:14;97834.56;;;20.92
71960;BMP280;59832;51.146;14.024;2023-05-10T12:20:41;97852.22;;;21.36
71960;BMP280;59832;51.146;14.024;2023-05-10T12:23:09;97853.31;;;21.57
71960;BMP280;59832;51.146;14.024;2023-05-10T12:25:37;97847.88;;;21.64
71960;BMP280;59832;51.146;14.024;2023-05-10T12:28:06;97853.59;;;22.26
71960;BMP280;59832;51.146;14.024;2023-05-10T12:30:34;97846.00;;;22.68
71960;BMP280;59832;51.146;14.024;2023-05-10T12:33:10;97844.16;;;22.59
71960;BMP280;59832;51.146;14.024;2023-05-10T12:35:48;97848.66;;;23.10
71960;BMP280;59832;51.146;14.024;2023-05-10T12:38:28;97851.19;;;22.50
71960;BMP280;59832;51.146;14.024;2023-05-10T12:40:57;97846.16;;;22.28
71960;BMP280;59832;51.146;14.024;2023-05-10T12:43:24;97848.16;;;22.70
71960;BMP280;59832;51.146;14.024;2023-05-10T12:45:50;97850.44;;;22.22
71960;BMP280;59832;51.146;14.024;2023-05-10T12:48:17;97846.88;;;22.56
71960;BMP280;59832;51.146;14.024;2023-05-10T12:50:44;97850.50;;;22.40
71960;BMP280;59832;51.146;14.024;2023-05-10T12:53:12;97852.69;;;21.93
71960;BMP280;59832;51.146;14.024;2023-05-10T12:55:40;97855.94;;;22.15
71960;BMP280;59832;51.146;14.024;2023-05-10T12:58:06;97866.88;;;22.28
71960;BMP280;59832;51.146;14.024;2023-05-10T13:00:33;97860.81;;;22.22
71960;BMP280;59832;51.146;14.024;2023-05-10T13:02:59;97847.88;;;21.64
71960;BMP280;59832;51.146;14.024;2023-05-10T13:05:26;97846.75;;;21.34
71960;BMP280;59832;51.146;14.024;2023-05-10T13:07:52;97859.94;;;21.06
71960;BMP280;59832;51.146;14.024;2023-05-10T13:10:18;97855.81;;;21.70
71960;BMP280;59832;51.146;14.024;2023-05-10T13:12:45;97860.28;;;21.38
71960;BMP280;59832;51.146;14.024;2023-05-10T13:15:11;97857.16;;;21.00
71960;BMP280;59832;51.146;14.024;2023-05-10T13:17:38;97851.34;;;21.09
71960;BMP280;59832;51.146;14.024;2023-05-10T13:20:07;97856.94;;;20.86
71960;BMP280;59832;51.146;14.024;2023-05-10T13:22:33;97856.94;;;20.86
71960;BMP280;59832;51.146;14.024;2023-05-10T13:25:06;97843.16;;;20.89
71960;BMP280;59832;51.146;14.024;2023-05-10T13:27:32;97842.00;;;20.90
71960;BMP280;59832;51.146;14.024;2023-05-10T13:29:59;97852.78;;;21.40
71960;BMP280;59832;51.146;14.024;2023-05-10T13:32:26;97847.28;;;21.29
71960;BMP280;59832;51.146;14.024;2023-05-10T13:34:52;97845.34;;;21.43
71960;BMP280;59832;51.146;14.024;2023-05-10T13:37:19;97844.72;;;21.69
71960;BMP280;59832;51.146;14.024;2023-05-10T13:39:45;97845.59;;;21.75
71960;BMP280;59832;51.146;14.024;2023-05-10T13:42:12;97844.56;;;21.64
71960;BMP280;59832;51.146;14.024;2023-05-10T13:44:38;97840.50;;;21.54
71960;BMP280;59832;51.146;14.024;2023-05-10T13:47:06;97849.69;;;21.24
71960;BMP280;59832;51.146;14.024;2023-05-10T13:49:32;97847.03;;;21.36
71960;BMP280;59832;51.146;14.024;2023-05-10T13:52:00;97851.06;;;21.37
71960;BMP280;59832;51.146;14.024;2023-05-10T13:54:33;97858.19;;;21.24
71960;BMP280;59832;51.146;14.024;2023-05-10T13:57:00;97847.81;;;20.94
71960;BMP280;59832;51.146;14.024;2023-05-10T13:59:26;97844.13;;;20.82
71960;BMP280;59832;51.146;14.024;2023-05-10T14:01:53;97845.28;;;21.03
71960;BMP280;59832;51.146;14.024;2023-05-10T14:04:20;97845.72;;;20.89
71960;BMP280;59832;51.146;14.024;2023-05-10T14:06:47;97842.81;;;20.99
71960;BMP280;59832;51.146;14.024;2023-05-10T14:09:18;97849.47;;;21.09
71960;BMP280;59832;51.146;14.024;2023-05-10T14:11:45;97844.16;;;21.34
71960;BMP280;59832;51.146;14.024;2023-05-10T14:14:12;97844.69;;;21.60
71960;BMP280;59832;51.146;14.024;2023-05-10T14:16:43;97845.13;;;21.06
71960;BMP280;59832;51.146;14.024;2023-05-10T14:19:11;97847.28;;;21.08
71960;BMP280;59832;51.146;14.024;2023-05-10T14:21:37;97845.63;;;21.14
71960;BMP280;59832;51.146;14.024;2023-05-10T14:24:04;97837.25;;;21.40
71960;BMP280;59832;51.146;14.024;2023-05-10T14:26:31;97830.00;;;21.57